createdAt,value
2022-12-29T04:56:33.963Z,88465.00
2022-12-29T04:57:33.941Z,88463.00
2022-12-29T04:58:33.923Z,88465.00
2022-12-29T04:59:33.910Z,88474.00
2022-12-29T05:00:33.889Z,88467.00
2022-12-29T05:01:34.002Z,88467.00
2022-12-29T05:02:34.091Z,88465.00
2022-12-29T05:03:33.894Z,88461.00
2022-12-29T05:04:33.859Z,88476.00
2022-12-29T05:05:33.817Z,88474.00
2022-12-29T05:06:33.822Z,88457.00
2022-12-29T05:07:33.796Z,88455.00
2022-12-29T05:08:33.783Z,88465.00
2022-12-29T05:09:33.765Z,88461.00
2022-12-29T05:10:33.745Z,88461.00
2022-12-29T05:11:33.721Z,88455.00
2022-12-29T05:12:33.725Z,88457.00
2022-12-29T05:13:33.701Z,88459.00
2022-12-29T05:14:33.676Z,88459.00
2022-12-29T05:15:33.671Z,88459.00
2022-12-29T05:16:33.743Z,88453.00
2022-12-29T05:17:33.643Z,88457.00
2022-12-29T05:18:33.628Z,88457.00
2022-12-29T05:19:33.616Z,88459.00
2022-12-29T05:20:33.580Z,88449.00
2022-12-29T05:21:33.577Z,88455.00
2022-12-29T05:22:33.544Z,88453.00
2022-12-29T05:23:33.533Z,88463.00
2022-12-29T05:24:33.513Z,88457.00
2022-12-29T05:25:33.491Z,88453.00
2022-12-29T05:26:33.475Z,88447.00
2022-12-29T05:27:33.521Z,88457.00
2022-12-29T05:28:33.440Z,88461.00
2022-12-29T05:29:33.437Z,88455.00
2022-12-29T05:30:33.413Z,88447.00
2022-12-29T05:31:33.458Z,88455.00
2022-12-29T05:32:33.391Z,88463.00
2022-12-29T05:33:33.375Z,88451.00
2022-12-29T05:34:33.361Z,88461.00
2022-12-29T05:35:33.338Z,88461.00
2022-12-29T05:36:37.679Z,88463.00
2022-12-29T05:37:33.327Z,88457.00
2022-12-29T05:38:33.311Z,88453.00
2022-12-29T05:39:33.292Z,88457.00
2022-12-29T05:40:33.288Z,88455.00
2022-12-29T05:41:33.269Z,88451.00
2022-12-29T05:42:33.247Z,88451.00
2022-12-29T05:43:33.224Z,88447.00
2022-12-29T05:44:33.210Z,88443.00
2022-12-29T05:45:33.195Z,88447.00
2022-12-29T05:46:33.218Z,88447.00
2022-12-29T05:47:33.170Z,88443.00
2022-12-29T05:48:37.877Z,88443.00
2022-12-29T05:49:34.121Z,88443.00
2022-12-29T05:50:33.119Z,88447.00
2022-12-29T05:51:33.103Z,88449.00
2022-12-29T05:52:33.084Z,88449.00
2022-12-29T05:53:33.079Z,88445.00
2022-12-29T05:54:33.052Z,88451.00
2022-12-29T05:55:33.040Z,88453.00
2022-12-29T05:56:33.035Z,88451.00
2022-12-29T05:57:33.023Z,88459.00
2022-12-29T05:58:33.013Z,88449.00
2022-12-29T05:59:32.986Z,88461.00
2022-12-29T06:00:32.979Z,88459.00
2022-12-29T06:01:33.087Z,88447.00
2022-12-29T06:02:33.198Z,88441.00
2022-12-29T06:03:33.071Z,88445.00
2022-12-29T06:04:32.926Z,88439.00
2022-12-29T06:05:32.920Z,88441.00
2022-12-29T06:06:32.900Z,88435.00
2022-12-29T06:07:32.888Z,88443.00
2022-12-29T06:08:32.879Z,88447.00
2022-12-29T06:09:32.866Z,88433.00
2022-12-29T06:10:32.863Z,88445.00
2022-12-29T06:11:32.835Z,88437.00
2022-12-29T06:12:32.824Z,88449.00
2022-12-29T06:13:32.833Z,88439.00
2022-12-29T06:14:32.815Z,88441.00
2022-12-29T06:15:32.809Z,88439.00
2022-12-29T06:16:32.826Z,88433.00
2022-12-29T06:17:32.773Z,88433.00
2022-12-29T06:18:32.777Z,88437.00
2022-12-29T06:19:32.756Z,88437.00
2022-12-29T06:20:32.758Z,88435.00
2022-12-29T06:21:32.753Z,88433.00
2022-12-29T06:22:32.748Z,88443.00
2022-12-29T06:23:32.739Z,88451.00
2022-12-29T06:24:32.725Z,88443.00
2022-12-29T06:25:32.719Z,88445.00
2022-12-29T06:26:32.701Z,88449.00
2022-12-29T06:27:32.699Z,88447.00
2022-12-29T06:28:32.702Z,88447.00
2022-12-29T06:29:32.769Z,88447.00
2022-12-29T06:30:32.667Z,88429.00
2022-12-29T06:31:32.693Z,88447.00
2022-12-29T06:32:32.633Z,88443.00
2022-12-29T06:33:32.621Z,88451.00
2022-12-29T06:34:32.601Z,88449.00
2022-12-29T06:35:32.602Z,88457.00
2022-12-29T06:36:32.571Z,88453.00
2022-12-29T06:37:32.565Z,88461.00
2022-12-29T06:38:32.545Z,88459.00
2022-12-29T06:39:32.524Z,88476.00
2022-12-29T06:40:32.514Z,88465.00
2022-12-29T06:41:32.696Z,88474.00
2022-12-29T06:42:32.488Z,88467.00
2022-12-29T06:43:32.473Z,88474.00
2022-12-29T06:44:32.478Z,88467.00
2022-12-29T06:45:32.490Z,88478.00
2022-12-29T06:46:32.514Z,88461.00
2022-12-29T06:47:32.416Z,88465.00
2022-12-29T06:48:32.407Z,88483.00
2022-12-29T06:49:32.377Z,88480.00
2022-12-29T06:50:32.359Z,88476.00
2022-12-29T06:51:32.359Z,88487.00
2022-12-29T06:52:32.324Z,88487.00
2022-12-29T06:53:32.315Z,88483.00
2022-12-29T06:54:32.293Z,88487.00
2022-12-29T06:55:32.284Z,88489.00
2022-12-29T06:56:32.253Z,88489.00
2022-12-29T06:57:32.259Z,88489.00
2022-12-29T06:58:32.227Z,88476.00
2022-12-29T06:59:32.193Z,88489.00
2022-12-29T07:00:32.240Z,88480.00
2022-12-29T07:01:32.258Z,88487.00
2022-12-29T07:02:32.211Z,88485.00
2022-12-29T07:03:32.247Z,88485.00
2022-12-29T07:04:32.104Z,88487.00
2022-12-29T07:05:32.088Z,88485.00
2022-12-29T07:06:32.072Z,88489.00
2022-12-29T07:07:32.058Z,88491.00
2022-12-29T07:08:32.043Z,88493.00
2022-12-29T07:09:32.023Z,88493.00
2022-12-29T07:10:32.015Z,88495.00
2022-12-29T07:11:31.993Z,88495.00
2022-12-29T07:12:32.061Z,88497.00
2022-12-29T07:13:31.966Z,88493.00
2022-12-29T07:14:35.966Z,88499.00
2022-12-29T07:15:32.952Z,88499.00
2022-12-29T07:16:31.979Z,88499.00
2022-12-29T07:17:31.881Z,88507.00
2022-12-29T07:18:31.884Z,88509.00
2022-12-29T07:19:31.865Z,88513.00
2022-12-29T07:20:31.944Z,88507.00
2022-12-29T07:21:31.829Z,88507.00
2022-12-29T07:22:31.808Z,88507.00
2022-12-29T07:23:31.794Z,88503.00
2022-12-29T07:24:31.781Z,88503.00
2022-12-29T07:25:31.758Z,88507.00
2022-12-29T07:26:36.296Z,88503.00
2022-12-29T07:27:31.733Z,88497.00
2022-12-29T07:28:31.723Z,88505.00
2022-12-29T07:29:31.701Z,88507.00
2022-12-29T07:30:31.683Z,88507.00
2022-12-29T07:31:31.804Z,88507.00
2022-12-29T07:32:31.651Z,88505.00
2022-12-29T07:33:31.632Z,88503.00
2022-12-29T07:34:31.624Z,88505.00
2022-12-29T07:35:31.606Z,88503.00
2022-12-29T07:36:34.556Z,88505.00
2022-12-29T07:37:31.579Z,88503.00
2022-12-29T07:38:31.559Z,88501.00
2022-12-29T07:39:31.564Z,88503.00
2022-12-29T07:40:31.520Z,88511.00
2022-12-29T07:41:31.499Z,88505.00
2022-12-29T07:42:31.478Z,88509.00
2022-12-29T07:43:31.467Z,88515.00
2022-12-29T07:44:31.445Z,88513.00
2022-12-29T07:45:31.431Z,88517.00
2022-12-29T07:46:55.466Z,88517.00
2022-12-29T07:47:32.393Z,88515.00
2022-12-29T07:48:31.384Z,88509.00
2022-12-29T07:49:31.371Z,88509.00
2022-12-29T07:50:31.343Z,88507.00
2022-12-29T07:51:31.335Z,88513.00
2022-12-29T07:52:31.322Z,88509.00
2022-12-29T07:53:31.315Z,88503.00
2022-12-29T07:54:31.291Z,88505.00
2022-12-29T07:55:31.277Z,88507.00
2022-12-29T07:56:31.268Z,88507.00
2022-12-29T07:57:32.304Z,88509.00
2022-12-29T07:58:31.224Z,88513.00
2022-12-29T07:59:31.219Z,88507.00
2022-12-29T08:00:31.195Z,88507.00
2022-12-29T08:01:31.316Z,88513.00
2022-12-29T08:02:31.198Z,88515.00
2022-12-29T08:03:31.261Z,88513.00
2022-12-29T08:04:31.127Z,88513.00
2022-12-29T08:05:31.090Z,88511.00
2022-12-29T08:06:31.081Z,88507.00
2022-12-29T08:07:31.094Z,88509.00
2022-12-29T10:34:25.789Z,88481.00
2022-12-29T10:35:25.729Z,88474.00
2022-12-29T10:36:25.690Z,88474.00
2022-12-29T10:37:31.874Z,88478.00
2022-12-29T10:38:26.611Z,88481.00
2022-12-29T10:39:25.555Z,88476.00
2022-12-29T10:40:25.546Z,88463.00
2022-12-29T10:41:25.469Z,88467.00
2022-12-29T10:42:25.431Z,88463.00
2022-12-29T10:43:25.407Z,88463.00
2022-12-29T10:44:25.326Z,88474.00
2022-12-29T10:45:25.267Z,88459.00
2022-12-29T10:46:25.293Z,88463.00
2022-12-29T10:47:25.167Z,88461.00
2022-12-29T10:48:30.190Z,88465.00
2022-12-29T10:49:26.068Z,88467.00
2022-12-29T10:50:25.026Z,88461.00
2022-12-29T10:51:24.980Z,88453.00
2022-12-29T10:52:24.963Z,88463.00
2022-12-29T10:53:24.864Z,88459.00
2022-12-29T10:54:24.829Z,88461.00
2022-12-29T10:55:24.762Z,88453.00
2022-12-29T10:56:24.768Z,88457.00
2022-12-29T10:57:24.675Z,88457.00
2022-12-29T10:58:24.603Z,88457.00
2022-12-29T10:59:24.552Z,88461.00
2022-12-29T11:00:24.483Z,88457.00
2022-12-29T11:01:24.538Z,88459.00
2022-12-29T11:02:24.498Z,88455.00
2022-12-29T11:03:24.370Z,88459.00
2022-12-29T11:04:24.269Z,88445.00
2022-12-29T11:05:24.195Z,88451.00
2022-12-29T11:06:24.144Z,88453.00
2022-12-29T11:07:27.296Z,88459.00
2022-12-29T11:08:24.014Z,88457.00
2022-12-29T11:09:36.617Z,88455.00
2022-12-29T11:10:24.892Z,88447.00
2022-12-29T11:11:23.811Z,88449.00
2022-12-29T11:12:23.745Z,88455.00
2022-12-29T11:13:23.671Z,88459.00
2022-12-29T11:14:23.600Z,88451.00
2022-12-29T11:15:23.506Z,88457.00
2022-12-29T11:16:23.463Z,88455.00
2022-12-29T11:17:23.375Z,88453.00
2022-12-29T11:18:23.297Z,88459.00
2022-12-29T11:19:23.206Z,88451.00
2022-12-29T11:20:23.129Z,88449.00
2022-12-29T11:21:23.059Z,88441.00
2022-12-29T11:22:22.972Z,88445.00
2022-12-29T11:23:22.893Z,88443.00
2022-12-29T11:24:22.813Z,88441.00
2022-12-29T11:25:22.733Z,88437.00
2022-12-29T11:26:22.672Z,88431.00
2022-12-29T11:27:22.600Z,88437.00
2022-12-29T11:28:22.539Z,88429.00
2022-12-29T11:29:22.480Z,88429.00
2022-12-29T11:30:22.392Z,88429.00
2022-12-29T11:31:22.411Z,88429.00
2022-12-29T11:32:28.163Z,88425.00
2022-12-29T11:33:23.217Z,88427.00
2022-12-29T11:34:22.161Z,88427.00
2022-12-29T11:35:22.093Z,88420.00
2022-12-29T11:36:22.036Z,88425.00
2022-12-29T11:37:21.967Z,88421.00
2022-12-29T11:38:21.923Z,88418.00
2022-12-29T11:39:21.851Z,88427.00
2022-12-29T11:40:21.790Z,88416.00
2022-12-29T11:41:21.708Z,88412.00
2022-12-29T11:42:21.641Z,88414.00
2022-12-29T11:43:21.569Z,88418.00
2022-12-29T11:44:21.476Z,88418.00
2022-12-29T11:45:21.394Z,88410.00
2022-12-29T11:46:21.374Z,88420.00
2022-12-29T11:47:21.235Z,88418.00
2022-12-29T11:48:21.164Z,88421.00
2022-12-29T11:49:21.125Z,88410.00
2022-12-29T14:56:14.152Z,88384.00
2022-12-29T14:57:14.123Z,88396.00
2022-12-29T14:58:14.206Z,88398.00
2022-12-29T14:59:14.052Z,88396.00
2022-12-29T15:00:14.025Z,88394.00
2022-12-29T15:01:14.039Z,88392.00
2022-12-29T15:02:14.091Z,88398.00
2022-12-29T15:03:14.102Z,88400.00
2022-12-29T15:04:13.917Z,88396.00
2022-12-29T15:05:13.898Z,88384.00
2022-12-29T15:06:13.876Z,88382.00
2022-12-29T15:07:13.854Z,88386.00
2022-12-29T15:08:13.816Z,88384.00
2022-12-29T15:09:13.789Z,88382.00
2022-12-29T15:10:13.771Z,88378.00
2022-12-29T15:11:13.756Z,88374.00
2022-12-29T15:12:16.520Z,88376.00
2022-12-29T15:13:13.695Z,88384.00
2022-12-29T15:14:13.671Z,88378.00
2022-12-29T15:15:13.666Z,88370.00
2022-12-29T15:16:13.703Z,88366.00
2022-12-29T15:17:13.633Z,88370.00
2022-12-29T15:18:13.617Z,88372.00
2022-12-29T15:19:19.642Z,88372.00
2022-12-29T15:20:14.546Z,88370.00
2022-12-29T15:21:13.508Z,88368.00
2022-12-29T15:22:13.487Z,88368.00
2022-12-29T15:23:13.464Z,88370.00
2022-12-29T15:24:13.431Z,88366.00
2022-12-29T15:25:13.408Z,88361.00
2022-12-29T15:26:13.385Z,88359.00
2022-12-29T15:27:13.368Z,88361.00
2022-12-29T15:28:13.343Z,88365.00
2022-12-29T15:29:13.327Z,88365.00
2022-12-29T15:30:17.767Z,88366.00
2022-12-29T15:31:14.304Z,88366.00
2022-12-29T15:32:13.254Z,88363.00
2022-12-29T15:33:13.201Z,88365.00
2022-12-29T15:34:13.360Z,88359.00
2022-12-29T15:35:13.152Z,88363.00
2022-12-29T15:36:13.114Z,88368.00
2022-12-29T15:37:13.095Z,88368.00
2022-12-29T15:38:13.058Z,88363.00
2022-12-29T15:39:13.049Z,88363.00
2022-12-29T15:40:13.012Z,88357.00
2022-12-29T15:41:12.984Z,88357.00
2022-12-29T15:42:12.962Z,88357.00
2022-12-29T15:43:12.952Z,88355.00
2022-12-29T15:44:12.910Z,88357.00
2022-12-29T15:45:12.894Z,88355.00
2022-12-29T15:46:12.901Z,88357.00
2022-12-29T15:47:12.829Z,88355.00
2022-12-29T15:48:12.795Z,88353.00
2022-12-29T15:49:12.774Z,88355.00
2022-12-29T15:50:12.747Z,88349.00
2022-12-29T15:51:12.722Z,88353.00
2022-12-29T15:52:12.692Z,88353.00
2022-12-29T15:53:12.689Z,88353.00
2022-12-29T15:54:12.638Z,88351.00
2022-12-29T15:55:12.613Z,88357.00
2022-12-29T15:56:12.588Z,88359.00
2022-12-29T15:57:12.569Z,88357.00
2022-12-29T15:58:12.540Z,88363.00
2022-12-29T15:59:12.513Z,88366.00
2022-12-29T16:00:12.479Z,88361.00
2022-12-29T16:01:12.516Z,88365.00
2022-12-29T16:02:12.870Z,88366.00
2022-12-29T16:03:12.542Z,88370.00
2022-12-29T16:04:12.382Z,88370.00
2022-12-29T16:05:19.519Z,88368.00
2022-12-29T16:06:13.325Z,88372.00
2022-12-29T16:07:12.305Z,88380.00
2022-12-29T16:08:12.273Z,88378.00
2022-12-29T16:09:12.255Z,88378.00
2022-12-29T16:10:12.224Z,88376.00
2022-12-29T16:11:12.210Z,88370.00
2022-12-29T16:12:12.161Z,88370.00
2022-12-29T16:13:12.154Z,88382.00
2022-12-29T16:14:12.119Z,88380.00
2022-12-29T16:15:12.086Z,88380.00
2022-12-29T16:16:12.120Z,88368.00
2022-12-29T16:17:12.058Z,88374.00
2022-12-29T16:18:12.016Z,88376.00
2022-12-29T16:19:11.979Z,88374.00
2022-12-29T16:20:11.948Z,88384.00
2022-12-29T16:21:11.926Z,88374.00
2022-12-29T16:22:11.892Z,88384.00
2022-12-29T16:23:11.866Z,88392.00
2022-12-29T16:24:11.849Z,88384.00
2022-12-29T16:25:11.824Z,88388.00
2022-12-29T16:26:11.789Z,88388.00
2022-12-29T16:27:11.764Z,88392.00
2022-12-29T16:28:11.745Z,88390.00
2022-12-29T16:29:11.724Z,88394.00
2022-12-29T16:30:11.683Z,88392.00
2022-12-29T16:31:11.721Z,88398.00
2022-12-29T16:32:11.694Z,88398.00
2022-12-29T16:33:11.607Z,88402.00
2022-12-29T16:34:11.573Z,88400.00
2022-12-29T16:35:11.565Z,88404.00
2022-12-29T16:36:15.284Z,88404.00
2022-12-29T16:37:12.500Z,88402.00
2022-12-29T16:38:11.473Z,88402.00
2022-12-29T16:39:11.447Z,88400.00
2022-12-29T16:40:11.415Z,88400.00
2022-12-29T16:41:11.397Z,88398.00
2022-12-29T16:42:11.369Z,88396.00
2022-12-29T16:43:11.351Z,88388.00
2022-12-29T16:44:11.315Z,88392.00
2022-12-29T16:45:11.289Z,88394.00
2022-12-29T16:46:11.338Z,88386.00
2022-12-29T16:47:11.243Z,88392.00
2022-12-29T16:48:11.223Z,88388.00
2022-12-29T16:49:11.185Z,88396.00
2022-12-29T16:50:11.157Z,88388.00
2022-12-29T16:51:11.139Z,88392.00
2022-12-29T16:52:11.108Z,88386.00
2022-12-29T16:53:11.079Z,88390.00
2022-12-29T16:54:11.052Z,88388.00
2022-12-29T22:36:02.556Z,88319.00
2022-12-29T22:56:01.991Z,88302.00
2022-12-29T23:05:04.001Z,88286.00
2022-12-29T23:20:01.394Z,88280.00
2022-12-29T23:21:01.374Z,88276.00
2022-12-29T23:22:01.500Z,88282.00
2022-12-29T23:23:01.300Z,88286.00
2022-12-29T23:24:01.270Z,88286.00
2022-12-29T23:25:01.250Z,88282.00
2022-12-29T23:26:01.212Z,88284.00
2022-12-29T23:27:01.201Z,88288.00
2022-12-29T23:28:01.168Z,88290.00
2022-12-29T23:29:01.144Z,88294.00
2022-12-29T23:30:01.124Z,88292.00
2022-12-29T23:31:01.109Z,88292.00
2022-12-29T23:32:01.076Z,88298.00
